sensor_id;sensor_type;location;lat;lon;timestamp;pressure;altitude;pressure_sealevel;temperature;humidity
12879;BME280;20617;49.476;10.986;2023-01-16T00:00:06;97195.00;;;3.55;100.00
12879;BME280;20617;49.476;10.986;2023-01-16T00:02:11;97188.91;;;3.57;100.00
12879;BME280;20617;49.476;10.986;2023-01-16T00:04:19;97174.25;;;3.61;100.00
12879;BME280;20617;49.476;10.986;2023-01-16T00:06:24;97169.94;;;3.61;100.00
12879;BME280;20617;49.476;10.986;2023-01-16T00:08:29;97173.34;;;3.62;100.00
12879;BME280;20617;49.476;10.986;2023-01-16T00:10:34;97165.56;;;3.63;100.00
12879;BME280;20617;49.476;10.986;2023-01-16T00:12:39;97161.31;;;3.62;100.00
12879;BME280;20617;49.476;10.986;2023-01-16T00:14:44;97168.19;;;3.62;100.00
12879;BME280;20617;49.476;10.986;2023-01-16T00:16:51;97159.56;;;3.63;100.00
12879;BME280;20617;49.476;10.986;2023-01-16T00:18:56;97162.22;;;3.61;100.00
12879;BME280;20617;49.476;10.986;2023-01-16T00:21:04;97163.06;;;3.62;100.00
12879;BME280;20617;49.476;10.986;2023-01-16T00:23:09;97159.75;;;3.58;100.00
12879;BME280;20617;49.476;10.986;2023-01-16T00:25:14;97149.56;;;3.55;100.00
12879;BME280;20617;49.476;10.986;2023-01-16T00:27:22;97149.56;;;3.55;100.00
12879;BME280;20617;49.476;10.986;2023-01-16T00:29:27;97142.75;;;3.53;100.00
12879;BME280;20617;49.476;10.986;2023-01-16T00:31:32;97141.16;;;3.49;100.00
12879;BME280;20617;49.476;10.986;2023-01-16T00:33:37;97139.59;;;3.45;100.00
12879;BME280;20617;49.476;10.986;2023-01-16T00:35:42;97132.72;;;3.45;100.00
12879;BME280;20617;49.476;10.986;2023-01-16T00:37:49;97132.72;;;3.45;100.00
12879;BME280;20617;49.476;10.986;2023-01-16T00:39:54;97142.25;;;3.42;100.00
12879;BME280;20617;49.476;10.986;2023-01-16T00:41:59;97136.28;;;3.41;100.00
12879;BME280;20617;49.476;10.986;2023-01-16T00:44:04;97125.25;;;3.37;100.00
12879;BME280;20617;49.476;10.986;2023-01-16T00:46:09;97133.03;;;3.34;100.00
12879;BME280;20617;49.476;10.986;2023-01-16T00:48:14;97124.44;;;3.35;100.00
12879;BME280;20617;49.476;10.986;2023-01-16T00:50:19;97115.00;;;3.36;100.00
12879;BME280;20617;49.476;10.986;2023-01-16T00:52:23;97108.28;;;3.32;100.00
12879;BME280;20617;49.476;10.986;2023-01-16T00:54:31;97109.94;;;3.33;100.00
12879;BME280;20617;49.476;10.986;2023-01-16T00:56:36;97103.06;;;3.33;100.00
12879;BME280;20617;49.476;10.986;2023-01-16T00:58:41;97106.63;;;3.29;100.00
12879;BME280;20617;49.476;10.986;2023-01-16T01:00:45;97097.13;;;3.31;100.00
12879;BME280;20617;49.476;10.986;2023-01-16T01:02:51;97093.69;;;3.32;100.00
12879;BME280;20617;49.476;10.986;2023-01-16T01:04:56;97091.16;;;3.31;100.00
12879;BME280;20617;49.476;10.986;2023-01-16T01:07:01;97090.31;;;3.30;100.00
12879;BME280;20617;49.476;10.986;2023-01-16T01:09:06;97086.09;;;3.28;100.00
12879;BME280;20617;49.476;10.986;2023-01-16T01:11:14;97083.59;;;3.26;100.00
12879;BME280;20617;49.476;10.986;2023-01-16T01:13:19;97086.25;;;3.23;100.00
12879;BME280;20617;49.476;10.986;2023-01-16T01:15:23;97081.13;;;3.23;100.00
12879;BME280;20617;49.476;10.986;2023-01-16T01:17:28;97086.28;;;3.22;100.00
12879;BME280;20617;49.476;10.986;2023-01-16T01:19:33;97080.31;;;3.21;100.00
12879;BME280;20617;49.476;10.986;2023-01-16T01:21:38;97077.75;;;3.21;100.00
12879;BME280;20617;49.476;10.986;2023-01-16T01:23:43;97079.63;;;3.16;100.00
12879;BME280;20617;49.476;10.986;2023-01-16T01:25:48;97070.88;;;3.22;100.00
12879;BME280;20617;49.476;10.986;2023-01-16T01:27:56;97069.84;;;3.27;100.00
12879;BME280;20617;49.476;10.986;2023-01-16T01:30:02;97062.09;;;3.29;100.00
12879;BME280;20617;49.476;10.986;2023-01-16T01:32:07;97060.16;;;3.35;100.00
12879;BME280;20617;49.476;10.986;2023-01-16T01:34:12;97050.38;;;3.45;100.00
12879;BME280;20617;49.476;10.986;2023-01-16T01:36:17;97049.34;;;3.51;100.00
12879;BME280;20617;49.476;10.986;2023-01-16T01:38:22;97044.72;;;3.60;100.00
12879;BME280;20617;49.476;10.986;2023-01-16T01:40:27;97041.06;;;3.68;100.00
12879;BME280;20617;49.476;10.986;2023-01-16T01:42:36;97040.13;;;3.70;100.00
12879;BME280;20617;49.476;10.986;2023-01-16T01:44:57;97030.69;;;3.69;100.00
12879;BME280;20617;49.476;10.986;2023-01-16T01:47:04;97029.94;;;3.67;100.00
12879;BME280;20617;49.476;10.986;2023-01-16T01:49:21;97022.09;;;3.70;100.00
12879;BME280;20617;49.476;10.986;2023-01-16T01:51:30;97021.38;;;3.67;100.00
12879;BME280;20617;49.476;10.986;2023-01-16T01:53:41;97030.88;;;3.65;100.00
12879;BME280;20617;49.476;10.986;2023-01-16T01:55:49;97009.56;;;3.61;100.00
12879;BME280;20617;49.476;10.986;2023-01-16T01:57:57;97013.84;;;3.60;100.00
12879;BME280;20617;49.476;10.986;2023-01-16T02:00:10;97016.31;;;3.63;100.00
12879;BME280;20617;49.476;10.986;2023-01-16T02:02:19;97007.66;;;3.66;100.00
12879;BME280;20617;49.476;10.986;2023-01-16T02:04:29;97005.03;;;3.68;100.00
12879;BME280;20617;49.476;10.986;2023-01-16T02:06:40;97006.56;;;3.73;100.00
12879;BME280;20617;49.476;10.986;2023-01-16T02:08:48;96993.72;;;3.72;100.00
12879;BME280;20617;49.476;10.986;2023-01-16T02:10:59;96977.56;;;3.68;100.00
12879;BME280;20617;49.476;10.986;2023-01-16T02:13:07;96982.66;;;3.70;100.00
12879;BME280;20617;49.476;10.986;2023-01-16T02:15:14;96978.28;;;3.72;100.00
12879;BME280;20617;49.476;10.986;2023-01-16T02:17:20;96974.84;;;3.73;100.00
12879;BME280;20617;49.476;10.986;2023-01-16T02:19:45;96961.91;;;3.74;100.00
12879;BME280;20617;49.476;10.986;2023-01-16T02:22:11;96957.44;;;3.79;100.00
12879;BME280;20617;49.476;10.986;2023-01-16T02:24:42;96950.38;;;3.84;100.00
12879;BME280;20617;49.476;10.986;2023-01-16T02:27:08;96947.63;;;3.89;100.00
12879;BME280;20617;49.476;10.986;2023-01-16T02:29:44;96934.59;;;3.94;100.00
12879;BME280;20617;49.476;10.986;2023-01-16T02:31:58;96929.44;;;3.94;100.00
12879;BME280;20617;49.476;10.986;2023-01-16T02:34:19;96928.50;;;3.96;100.00
12879;BME280;20617;49.476;10.986;2023-01-16T02:36:37;96928.44;;;3.98;100.00
12879;BME280;20617;49.476;10.986;2023-01-16T02:38:51;96919.88;;;3.97;100.00
12879;BME280;20617;49.476;10.986;2023-01-16T02:41:10;96911.31;;;3.97;100.00
12879;BME280;20617;49.476;10.986;2023-01-16T02:43:27;96916.47;;;3.97;100.00
12879;BME280;20617;49.476;10.986;2023-01-16T02:45:42;96911.13;;;4.01;100.00
12879;BME280;20617;49.476;10.986;2023-01-16T02:47:55;96913.50;;;4.07;100.00
12879;BME280;20617;49.476;10.986;2023-01-16T02:50:06;96898.81;;;4.09;100.00
12879;BME280;20617;49.476;10.986;2023-01-16T02:52:21;96895.47;;;4.07;100.00
12879;BME280;20617;49.476;10.986;2023-01-16T02:54:33;96892.03;;;4.07;100.00
12879;BME280;20617;49.476;10.986;2023-01-16T02:56:43;96879.16;;;4.07;100.00
12879;BME280;20617;49.476;10.986;2023-01-16T02:58:51;96871.56;;;4.04;100.00
12879;BME280;20617;49.476;10.986;2023-01-16T03:00:58;96866.16;;;4.10;100.00
12879;BME280;20617;49.476;10.986;2023-01-16T03:03:19;96865.09;;;4.16;100.00
12879;BME280;20617;49.476;10.986;2023-01-16T03:05:42;96864.22;;;4.17;100.00
12879;BME280;20617;49.476;10.986;2023-01-16T03:08:12;96856.41;;;4.18;100.00
12879;BME280;20617;49.476;10.986;2023-01-16T03:10:34;96849.75;;;4.13;100.00
12879;BME280;20617;49.476;10.986;2023-01-16T03:12:56;96845.28;;;4.18;100.00
12879;BME280;20617;49.476;10.986;2023-01-16T03:15:11;96839.41;;;4.14;100.00
12879;BME280;20617;49.476;10.986;2023-01-16T03:17:26;96830.91;;;4.12;100.00
12879;BME280;20617;49.476;10.986;2023-01-16T03:19:45;96823.25;;;4.11;100.00
12879;BME280;20617;49.476;10.986;2023-01-16T03:22:05;96831.03;;;4.09;100.00
12879;BME280;20617;49.476;10.986;2023-01-16T03:24:18;96818.22;;;4.07;100.00
12879;BME280;20617;49.476;10.986;2023-01-16T03:26:35;96819.94;;;4.07;100.00
12879;BME280;20617;49.476;10.986;2023-01-16T03:28:48;96810.53;;;4.06;100.00
12879;BME280;20617;49.476;10.986;2023-01-16T03:31:03;96798.03;;;3.97;100.00
12879;BME280;20617;49.476;10.986;2023-01-16T03:33:14;96790.56;;;3.91;100.00
12879;BME280;20617;49.476;10.986;2023-01-16T03:35:29;96791.66;;;3.83;100.00
12879;BME280;20617;49.476;10.986;2023-01-16T03:37:39;96779.00;;;3.79;100.00
12879;BME280;20617;49.476;10.986;2023-01-16T03:39:47;96769.81;;;3.72;100.00
12879;BME280;20617;49.476;10.986;2023-01-16T03:41:59;96762.53;;;3.61;100.00
12879;BME280;20617;49.476;10.986;2023-01-16T03:44:08;96755.78;;;3.58;100.00
12879;BME280;20617;49.476;10.986;2023-01-16T03:46:16;96745.88;;;3.48;100.00
12879;BME280;20617;49.476;10.986;2023-01-16T03:48:24;96735.88;;;3.40;100.00
12879;BME280;20617;49.476;10.986;2023-01-16T03:50:36;96731.16;;;3.29;100.00
12879;BME280;20617;49.476;10.986;2023-01-16T03:52:45;96733.97;;;3.23;100.00
12879;BME280;20617;49.476;10.986;2023-01-16T03:54:57;96736.66;;;3.20;100.00
12879;BME280;20617;49.476;10.986;2023-01-16T03:57:10;96734.16;;;3.17;100.00
12879;BME280;20617;49.476;10.986;2023-01-16T03:59:17;96730.00;;;3.14;100.00
12879;BME280;20617;49.476;10.986;2023-01-16T04:01:26;96737.75;;;3.13;100.00
12879;BME280;20617;49.476;10.986;2023-01-16T04:03:39;96725.81;;;3.12;100.00
12879;BME280;20617;49.476;10.986;2023-01-16T04:05:53;96730.00;;;3.14;100.00
12879;BME280;20617;49.476;10.986;2023-01-16T04:08:02;96727.44;;;3.14;100.00
12879;BME280;20617;49.476;10.986;2023-01-16T04:10:11;96724.97;;;3.11;100.00
12879;BME280;20617;49.476;10.986;2023-01-16T04:12:20;96714.06;;;3.05;100.00
12879;BME280;20617;49.476;10.986;2023-01-16T04:14:26;96709.03;;;3.02;100.00
12879;BME280;20617;49.476;10.986;2023-01-16T04:16:32;96704.84;;;2.99;100.00
12879;BME280;20617;49.476;10.986;2023-01-16T04:18:38;96694.66;;;2.96;100.00
12879;BME280;20617;49.476;10.986;2023-01-16T04:20:45;96680.19;;;2.93;100.00
12879;BME280;20617;49.476;10.986;2023-01-16T04:22:53;96701.66;;;2.92;100.00
12879;BME280;20617;49.476;10.986;2023-01-16T04:25:00;96684.72;;;2.87;100.00
12879;BME280;20617;49.476;10.986;2023-01-16T04:27:06;96680.50;;;2.86;100.00
12879;BME280;20617;49.476;10.986;2023-01-16T04:29:11;96685.88;;;2.80;100.00
12879;BME280;20617;49.476;10.986;2023-01-16T04:31:15;96682.53;;;2.76;100.00
12879;BME280;20617;49.476;10.986;2023-01-16T04:33:20;96678.38;;;2.74;100.00
12879;BME280;20617;49.476;10.986;2023-01-16T04:35:25;96674.06;;;2.74;100.00
12879;BME280;20617;49.476;10.986;2023-01-16T04:37:30;96661.34;;;2.71;100.00
12879;BME280;20617;49.476;10.986;2023-01-16T04:39:38;96667.34;;;2.70;100.00
12879;BME280;20617;49.476;10.986;2023-01-16T04:41:43;96658.78;;;2.71;100.00
12879;BME280;20617;49.476;10.986;2023-01-16T04:43:52;96654.50;;;2.70;100.00
12879;BME280;20617;49.476;10.986;2023-01-16T04:45:57;96646.97;;;2.65;100.00
12879;BME280;20617;49.476;10.986;2023-01-16T04:48:02;96647.94;;;2.63;100.00
12879;BME280;20617;49.476;10.986;2023-01-16T04:50:08;96643.50;;;2.66;100.00
12879;BME280;20617;49.476;10.986;2023-01-16T04:52:13;96640.09;;;2.66;100.00
12879;BME280;20617;49.476;10.986;2023-01-16T04:54:18;96623.88;;;2.65;100.00
12879;BME280;20617;49.476;10.986;2023-01-16T04:56:25;96619.78;;;2.60;100.00
12879;BME280;20617;49.476;10.986;2023-01-16T04:58:30;96620.63;;;2.60;100.00
12879;BME280;20617;49.476;10.986;2023-01-16T05:00:35;96612.91;;;2.60;100.00
12879;BME280;20617;49.476;10.986;2023-01-16T05:02:40;96612.94;;;2.59;100.00
12879;BME280;20617;49.476;10.986;2023-01-16T05:04:45;96613.84;;;2.58;100.00
12879;BME280;20617;49.476;10.986;2023-01-16T05:06:50;96611.28;;;2.58;100.00
12879;BME280;20617;49.476;10.986;2023-01-16T05:08:55;96613.84;;;2.58;100.00
12879;BME280;20617;49.476;10.986;2023-01-16T05:11:00;96609.63;;;2.57;100.00
12879;BME280;20617;49.476;10.986;2023-01-16T05:13:07;96598.69;;;2.52;100.00
12879;BME280;20617;49.476;10.986;2023-01-16T05:15:12;96590.13;;;2.51;100.00
12879;BME280;20617;49.476;10.986;2023-01-16T05:17:17;96595.19;;;2.53;100.00
12879;BME280;20617;49.476;10.986;2023-01-16T05:19:26;96587.50;;;2.53;100.00
12879;BME280;20617;49.476;10.986;2023-01-16T05:21:32;96574.66;;;2.53;100.00
12879;BME280;20617;49.476;10.986;2023-01-16T05:23:36;96569.59;;;2.51;100.00
12879;BME280;20617;49.476;10.986;2023-01-16T05:25:42;96566.22;;;2.49;100.00
12879;BME280;20617;49.476;10.986;2023-01-16T05:27:50;96555.97;;;2.49;100.00
12879;BME280;20617;49.476;10.986;2023-01-16T05:29:58;96552.56;;;2.48;100.00
12879;BME280;20617;49.476;10.986;2023-01-16T05:32:03;96556.88;;;2.48;100.00
12879;BME280;20617;49.476;10.986;2023-01-16T05:34:08;96546.72;;;2.45;100.00
12879;BME280;20617;49.476;10.986;2023-01-16T05:36:13;96543.41;;;2.41;100.00
12879;BME280;20617;49.476;10.986;2023-01-16T05:38:19;96547.81;;;2.38;100.00
12879;BME280;20617;49.476;10.986;2023-01-16T05:40:23;96548.75;;;2.35;100.00
12879;BME280;20617;49.476;10.986;2023-01-16T05:42:28;96547.22;;;2.31;100.00
12879;BME280;20617;49.476;10.986;2023-01-16T05:44:33;96546.50;;;2.28;100.00
12879;BME280;20617;49.476;10.986;2023-01-16T05:46:41;96541.28;;;2.29;100.00
12879;BME280;20617;49.476;10.986;2023-01-16T05:48:46;96540.56;;;2.25;100.00
12879;BME280;20617;49.476;10.986;2023-01-16T05:50:51;96527.72;;;2.25;100.00
12879;BME280;20617;49.476;10.986;2023-01-16T05:52:56;96527.00;;;2.22;100.00
12879;BME280;20617;49.476;10.986;2023-01-16T05:55:01;96509.91;;;2.21;100.00
12879;BME280;20617;49.476;10.986;2023-01-16T05:57:06;96507.31;;;2.22;100.00
12879;BME280;20617;49.476;10.986;2023-01-16T05:59:11;96508.22;;;2.21;100.00
12879;BME280;20617;49.476;10.986;2023-01-16T06:01:19;96515.13;;;2.19;100.00
12879;BME280;20617;49.476;10.986;2023-01-16T06:03:26;96515.91;;;2.21;100.00
12879;BME280;20617;49.476;10.986;2023-01-16T06:05:31;96511.63;;;2.22;100.00
12879;BME280;20617;49.476;10.986;2023-01-16T06:07:36;96503.78;;;2.25;100.00
12879;BME280;20617;49.476;10.986;2023-01-16T06:09:41;96504.75;;;2.22;100.00
12879;BME280;20617;49.476;10.986;2023-01-16T06:11:46;96491.06;;;2.22;100.00
12879;BME280;20617;49.476;10.986;2023-01-16T06:13:51;96496.22;;;2.22;100.00
12879;BME280;20617;49.476;10.986;2023-01-16T06:15:56;96491.84;;;2.24;100.00
12879;BME280;20617;49.476;10.986;2023-01-16T06:18:00;96483.31;;;2.23;100.00
12879;BME280;20617;49.476;10.986;2023-01-16T06:20:10;96492.03;;;2.19;100.00
12879;BME280;20617;49.476;10.986;2023-01-16T06:22:17;96476.78;;;2.15;100.00
12879;BME280;20617;49.476;10.986;2023-01-16T06:24:22;96473.38;;;2.14;100.00
12879;BME280;20617;49.476;10.986;2023-01-16T06:26:27;96472.72;;;2.09;100.00
12879;BME280;20617;49.476;10.986;2023-01-16T06:28:32;96466.69;;;2.10;100.00
12879;BME280;20617;49.476;10.986;2023-01-16T06:30:37;96461.50;;;2.12;100.00
12879;BME280;20617;49.476;10.986;2023-01-16T06:32:41;96451.31;;;2.10;100.00
12879;BME280;20617;49.476;10.986;2023-01-16T06:34:46;96440.97;;;2.12;100.00
12879;BME280;20617;49.476;10.986;2023-01-16T06:36:54;96443.66;;;2.09;100.00
12879;BME280;20617;49.476;10.986;2023-01-16T06:38:59;96442.78;;;2.10;100.00
12879;BME280;20617;49.476;10.986;2023-01-16T06:41:04;96436.97;;;2.04;100.00
12879;BME280;20617;49.476;10.986;2023-01-16T06:43:09;96429.28;;;2.04;100.00
12879;BME280;20617;49.476;10.986;2023-01-16T06:45:17;96431.84;;;2.04;100.00
12879;BME280;20617;49.476;10.986;2023-01-16T06:47:23;96421.63;;;2.03;100.00
12879;BME280;20617;49.476;10.986;2023-01-16T06:49:28;96424.25;;;2.01;100.00
12879;BME280;20617;49.476;10.986;2023-01-16T06:51:33;96418.41;;;1.98;100.00
12879;BME280;20617;49.476;10.986;2023-01-16T06:53:41;96416.78;;;1.95;100.00
12879;BME280;20617;49.476;10.986;2023-01-16T06:55:46;96412.53;;;1.94;100.00
12879;BME280;20617;49.476;10.986;2023-01-16T06:57:50;96408.97;;;1.98;100.00
12879;BME280;20617;49.476;10.986;2023-01-16T06:59:55;96398.81;;;1.95;100.00
12879;BME280;20617;49.476;10.986;2023-01-16T07:02:00;96398.72;;;1.98;100.00
12879;BME280;20617;49.476;10.986;2023-01-16T07:04:05;96393.50;;;2.00;100.00
12879;BME280;20617;49.476;10.986;2023-01-16T07:06:12;96391.88;;;1.97;100.00
12879;BME280;20617;49.476;10.986;2023-01-16T07:08:17;96390.22;;;1.96;100.00
12879;BME280;20617;49.476;10.986;2023-01-16T07:10:25;96387.81;;;1.92;100.00
12879;BME280;20617;49.476;10.986;2023-01-16T07:12:30;96379.38;;;1.90;100.00
12879;BME280;20617;49.476;10.986;2023-01-16T07:14:34;96372.50;;;1.90;100.00
12879;BME280;20617;49.476;10.986;2023-01-16T07:16:52;96366.66;;;1.87;100.00
12879;BME280;20617;49.476;10.986;2023-01-16T07:19:11;96362.34;;;1.87;100.00
12879;BME280;20617;49.476;10.986;2023-01-16T07:21:28;96353.81;;;1.87;100.00
12879;BME280;20617;49.476;10.986;2023-01-16T07:23:49;96354.66;;;1.87;100.00
12879;BME280;20617;49.476;10.986;2023-01-16T07:26:01;96349.34;;;1.92;100.00
12879;BME280;20617;49.476;10.986;2023-01-16T07:28:07;96343.22;;;1.96;100.00
12879;BME280;20617;49.476;10.986;2023-01-16T07:30:13;96335.66;;;1.91;100.00
12879;BME280;20617;49.476;10.986;2023-01-16T07:32:18;96331.44;;;1.90;100.00
12879;BME280;20617;49.476;10.986;2023-01-16T07:34:23;96327.84;;;1.94;100.00
12879;BME280;20617;49.476;10.986;2023-01-16T07:36:28;96321.91;;;1.94;100.00
12879;BME280;20617;49.476;10.986;2023-01-16T07:38:33;96314.16;;;1.95;100.00
12879;BME280;20617;49.476;10.986;2023-01-16T07:40:38;96302.84;;;1.99;100.00
12879;BME280;20617;49.476;10.986;2023-01-16T07:42:45;96297.56;;;2.04;100.00
12879;BME280;20617;49.476;10.986;2023-01-16T07:44:50;96288.81;;;2.08;100.00
12879;BME280;20617;49.476;10.986;2023-01-16T07:46:55;96286.09;;;2.13;100.00
12879;BME280;20617;49.476;10.986;2023-01-16T07:49:00;96284.94;;;2.20;100.00
12879;BME280;20617;49.476;10.986;2023-01-16T07:51:05;96277.31;;;2.18;100.00
12879;BME280;20617;49.476;10.986;2023-01-16T07:53:09;96277.22;;;2.20;100.00
12879;BME280;20617;49.476;10.986;2023-01-16T07:55:14;96264.13;;;2.26;100.00
12879;BME280;20617;49.476;10.986;2023-01-16T07:57:19;96263.25;;;2.27;100.00
12879;BME280;20617;49.476;10.986;2023-01-16T07:59:26;96260.63;;;2.29;100.00
12879;BME280;20617;49.476;10.986;2023-01-16T08:01:32;96252.00;;;2.30;100.00
12879;BME280;20617;49.476;10.986;2023-01-16T08:03:37;96245.16;;;2.30;100.00
12879;BME280;20617;49.476;10.986;2023-01-16T08:05:45;96251.78;;;2.36;100.00
12879;BME280;20617;49.476;10.986;2023-01-16T08:07:51;96249.78;;;2.42;100.00
12879;BME280;20617;49.476;10.986;2023-01-16T08:09:56;96241.03;;;2.46;100.00
12879;BME280;20617;49.476;10.986;2023-01-16T08:12:01;96240.06;;;2.49;100.00
12879;BME280;20617;49.476;10.986;2023-01-16T08:14:07;96233.16;;;2.51;100.00
12879;BME280;20617;49.476;10.986;2023-01-16T08:16:14;96219.47;;;2.51;100.00
12879;BME280;20617;49.476;10.986;2023-01-16T08:18:19;96216.56;;;2.58;100.00
12879;BME280;20617;49.476;10.986;2023-01-16T08:20:24;96209.59;;;2.62;100.00
12879;BME280;20617;49.476;10.986;2023-01-16T08:22:29;96206.66;;;2.69;100.00
12879;BME280;20617;49.476;10.986;2023-01-16T08:24:34;96202.72;;;2.62;100.00
12879;BME280;20617;49.476;10.986;2023-01-16T08:26:39;96197.22;;;2.70;100.00
12879;BME280;20617;49.476;10.986;2023-01-16T08:28:44;96193.91;;;2.68;100.00
12879;BME280;20617;49.476;10.986;2023-01-16T08:30:50;96186.88;;;2.71;100.00
12879;BME280;20617;49.476;10.986;2023-01-16T08:32:59;96175.66;;;2.74;100.00
12879;BME280;20617;49.476;10.986;2023-01-16T08:35:06;96177.16;;;2.78;100.00
12879;BME280;20617;49.476;10.986;2023-01-16T08:37:11;96164.94;;;2.83;100.00
12879;BME280;20617;49.476;10.986;2023-01-16T08:39:16;96163.97;;;2.86;100.00
12879;BME280;20617;49.476;10.986;2023-01-16T08:41:21;96160.09;;;2.96;100.00
12879;BME280;20617;49.476;10.986;2023-01-16T08:43:50;96151.88;;;3.07;100.00
12879;BME280;20617;49.476;10.986;2023-01-16T08:46:16;96143.75;;;3.16;100.00
12879;BME280;20617;49.476;10.986;2023-01-16T08:48:36;96136.13;;;3.14;100.00
12879;BME280;20617;49.476;10.986;2023-01-16T08:50:54;96131.56;;;3.20;100.00
12879;BME280;20617;49.476;10.986;2023-01-16T08:53:13;96123.50;;;3.27;100.00
12879;BME280;20617;49.476;10.986;2023-01-16T08:55:18;96120.88;;;3.29;100.00
12879;BME280;20617;49.476;10.986;2023-01-16T08:57:23;96107.00;;;3.31;100.00
12879;BME280;20617;49.476;10.986;2023-01-16T08:59:29;96108.41;;;3.38;100.00
12879;BME280;20617;49.476;10.986;2023-01-16T09:01:36;96108.72;;;3.50;100.00
12879;BME280;20617;49.476;10.986;2023-01-16T09:03:44;96099.47;;;3.63;100.00
12879;BME280;20617;49.476;10.986;2023-01-16T09:05:49;96091.75;;;3.80;100.00
12879;BME280;20617;49.476;10.986;2023-01-16T09:07:54;96093.97;;;3.88;100.00
12879;BME280;20617;49.476;10.986;2023-01-16T09:09:59;96097.50;;;4.03;100.00
12879;BME280;20617;49.476;10.986;2023-01-16T09:12:04;96090.28;;;4.09;100.00
12879;BME280;20617;49.476;10.986;2023-01-16T09:14:22;96084.25;;;4.11;100.00
12879;BME280;20617;49.476;10.986;2023-01-16T09:16:27;96091.56;;;4.18;100.00
12879;BME280;20617;49.476;10.986;2023-01-16T09:18:32;96086.94;;;4.25;100.00
12879;BME280;20617;49.476;10.986;2023-01-16T09:20:40;96083.28;;;4.29;100.00
12879;BME280;20617;49.476;10.986;2023-01-16T09:22:45;96062.03;;;4.25;100.00
12879;BME280;20617;49.476;10.986;2023-01-16T09:24:50;96066.69;;;4.35;100.00
12879;BME280;20617;49.476;10.986;2023-01-16T09:26:55;96051.06;;;4.38;100.00
12879;BME280;20617;49.476;10.986;2023-01-16T09:29:01;96044.28;;;4.37;100.00
12879;BME280;20617;49.476;10.986;2023-01-16T09:31:06;96038.03;;;4.41;100.00
12879;BME280;20617;49.476;10.986;2023-01-16T09:33:11;96030.22;;;4.42;100.00
12879;BME280;20617;49.476;10.986;2023-01-16T09:35:16;96023.41;;;4.41;100.00
12879;BME280;20617;49.476;10.986;2023-01-16T09:37:24;96024.81;;;4.47;100.00
12879;BME280;20617;49.476;10.986;2023-01-16T09:39:28;96025.16;;;4.57;100.00
12879;BME280;20617;49.476;10.986;2023-01-16T09:41:39;96017.19;;;4.61;100.00
12879;BME280;20617;49.476;10.986;2023-01-16T09:44:01;96010.53;;;4.57;100.00
12879;BME280;20617;49.476;10.986;2023-01-16T09:46:11;96011.09;;;4.62;100.00
12879;BME280;20617;49.476;10.986;2023-01-16T09:48:25;96016.34;;;4.76;100.00
12879;BME280;20617;49.476;10.986;2023-01-16T09:50:35;96007.44;;;4.82;100.00
12879;BME280;20617;49.476;10.986;2023-01-16T09:52:47;96002.78;;;4.89;100.00
12879;BME280;20617;49.476;10.986;2023-01-16T09:55:15;95996.00;;;5.02;100.00
12879;BME280;20617;49.476;10.986;2023-01-16T09:57:36;96000.00;;;5.08;100.00
12879;BME280;20617;49.476;10.986;2023-01-16T09:59:56;95976.19;;;5.18;100.00
12879;BME280;20617;49.476;10.986;2023-01-16T10:02:15;95966.81;;;5.32;100.00
12879;BME280;20617;49.476;10.986;2023-01-16T10:04:23;95958.53;;;5.41;100.00
12879;BME280;20617;49.476;10.986;2023-01-16T10:06:32;95957.72;;;5.40;100.00
12879;BME280;20617;49.476;10.986;2023-01-16T10:08:53;95955.50;;;5.49;100.00
12879;BME280;20617;49.476;10.986;2023-01-16T10:11:04;95954.88;;;5.45;100.00
12879;BME280;20617;49.476;10.986;2023-01-16T10:13:23;95955.94;;;5.41;100.00
12879;BME280;20617;49.476;10.986;2023-01-16T10:15:38;95947.50;;;5.39;100.00
12879;BME280;20617;49.476;10.986;2023-01-16T10:17:57;95937.88;;;5.41;100.00
12879;BME280;20617;49.476;10.986;2023-01-16T10:20:26;95932.59;;;5.44;100.00
12879;BME280;20617;49.476;10.986;2023-01-16T10:22:41;95929.72;;;5.49;100.00
12879;BME280;20617;49.476;10.986;2023-01-16T10:25:04;95921.97;;;5.49;100.00
12879;BME280;20617;49.476;10.986;2023-01-16T10:27:17;95905.28;;;5.54;100.00
12879;BME280;20617;49.476;10.986;2023-01-16T10:29:27;95902.34;;;5.60;100.00
12879;BME280;20617;49.476;10.986;2023-01-16T10:31:38;95897.56;;;5.68;100.00
12879;BME280;20617;49.476;10.986;2023-01-16T10:33:49;95890.91;;;5.79;100.00
12879;BME280;20617;49.476;10.986;2023-01-16T10:35:59;95894.84;;;5.84;100.00
12879;BME280;20617;49.476;10.986;2023-01-16T10:38:17;95882.69;;;5.86;100.00
12879;BME280;20617;49.476;10.986;2023-01-16T10:40:28;95881.94;;;5.84;100.00
12879;BME280;20617;49.476;10.986;2023-01-16T10:42:35;95869.41;;;5.78;100.00
12879;BME280;20617;49.476;10.986;2023-01-16T10:44:58;95861.69;;;5.78;100.00
12879;BME280;20617;49.476;10.986;2023-01-16T10:47:18;95845.16;;;5.81;100.00
12879;BME280;20617;49.476;10.986;2023-01-16T10:49:36;95854.03;;;5.91;100.00
12879;BME280;20617;49.476;10.986;2023-01-16T10:51:41;95858.19;;;5.94;100.00
12879;BME280;20617;49.476;10.986;2023-01-16T10:53:46;95850.06;;;6.00;100.00
12879;BME280;20617;49.476;10.986;2023-01-16T10:55:55;95839.59;;;6.16;100.00
12879;BME280;20617;49.476;10.986;2023-01-16T10:58:06;95830.44;;;6.24;100.00
12879;BME280;20617;49.476;10.986;2023-01-16T11:00:16;95827.56;;;6.29;100.00
12879;BME280;20617;49.476;10.986;2023-01-16T11:02:27;95817.94;;;6.31;100.00
12879;BME280;20617;49.476;10.986;2023-01-16T11:04:35;95813.91;;;6.27;100.00
12879;BME280;20617;49.476;10.986;2023-01-16T11:06:42;95812.69;;;6.32;100.00
12879;BME280;20617;49.476;10.986;2023-01-16T11:08:53;95806.38;;;6.37;100.00
12879;BME280;20617;49.476;10.986;2023-01-16T11:11:01;95801.22;;;6.37;100.00
12879;BME280;20617;49.476;10.986;2023-01-16T11:13:12;95783.88;;;6.39;100.00